sensor_id;sensor_type;location;lat;lon;timestamp;temperature;humidity
38995;DHT22;24769;18.712;99.000;2024-03-23T00:55:11;23.40;99.90
38995;DHT22;24769;18.712;99.000;2024-03-23T00:57:38;24.30;99.90
38995;DHT22;24769;18.712;99.000;2024-03-23T01:00:05;24.40;90.60
38995;DHT22;24769;18.712;99.000;2024-03-23T01:02:35;24.50;97.40
38995;DHT22;24769;18.712;99.000;2024-03-23T01:05:02;23.70;88.30
38995;DHT22;24769;18.712;99.000;2024-03-23T01:07:29;24.00;90.90
38995;DHT22;24769;18.712;99.000;2024-03-23T01:09:55;24.10;80.90
38995;DHT22;24769;18.712;99.000;2024-03-23T01:12:22;24.80;77.80
38995;DHT22;24769;18.712;99.000;2024-03-23T01:14:49;25.00;75.30
38995;DHT22;24769;18.712;99.000;2024-03-23T01:17:15;24.70;93.60
38995;DHT22;24769;18.712;99.000;2024-03-23T01:19:42;24.50;79.70
38995;DHT22;24769;18.712;99.000;2024-03-23T01:22:09;24.90;86.50
38995;DHT22;24769;18.712;99.000;2024-03-23T01:24:38;25.80;71.00
38995;DHT22;24769;18.712;99.000;2024-03-23T01:27:05;25.70;47.60
38995;DHT22;24769;18.712;99.000;2024-03-23T01:29:32;25.90;52.70
38995;DHT22;24769;18.712;99.000;2024-03-23T01:31:59;26.00;57.00
38995;DHT22;24769;18.712;99.000;2024-03-23T01:34:29;25.60;60.10
38995;DHT22;24769;18.712;99.000;2024-03-23T01:36:55;25.60;66.00
38995;DHT22;24769;18.712;99.000;2024-03-23T01:39:25;25.60;67.50
38995;DHT22;24769;18.712;99.000;2024-03-23T01:41:51;25.60;53.80
38995;DHT22;24769;18.712;99.000;2024-03-23T01:44:18;25.70;55.00
38995;DHT22;24769;18.712;99.000;2024-03-23T01:46:45;25.70;50.00
38995;DHT22;24769;18.712;99.000;2024-03-23T01:49:12;26.00;51.50
38995;DHT22;24769;18.712;99.000;2024-03-23T01:51:39;26.50;46.00
38995;DHT22;24769;18.712;99.000;2024-03-23T01:54:06;26.40;38.80
38995;DHT22;24769;18.712;99.000;2024-03-23T01:56:36;27.10;40.30
38995;DHT22;24769;18.712;99.000;2024-03-23T01:59:06;27.80;37.40
38995;DHT22;24769;18.712;99.000;2024-03-23T02:01:36;28.10;36.50
38995;DHT22;24769;18.712;99.000;2024-03-23T02:04:03;28.30;32.30
38995;DHT22;24769;18.712;99.000;2024-03-23T02:06:35;28.30;32.60
38995;DHT22;24769;18.712;99.000;2024-03-23T02:09:02;28.40;27.70
38995;DHT22;24769;18.712;99.000;2024-03-23T02:11:29;28.60;23.80
38995;DHT22;24769;18.712;99.000;2024-03-23T02:13:59;28.00;25.10
38995;DHT22;24769;18.712;99.000;2024-03-23T02:16:25;27.60;29.60
38995;DHT22;24769;18.712;99.000;2024-03-23T02:18:52;27.50;32.30
38995;DHT22;24769;18.712;99.000;2024-03-23T02:21:19;27.50;31.00
38995;DHT22;24769;18.712;99.000;2024-03-23T02:23:45;27.90;34.90
38995;DHT22;24769;18.712;99.000;2024-03-23T02:26:12;27.90;34.60
38995;DHT22;24769;18.712;99.000;2024-03-23T02:28:41;27.70;32.20
38995;DHT22;24769;18.712;99.000;2024-03-23T02:31:08;27.70;26.70
38995;DHT22;24769;18.712;99.000;2024-03-23T02:33:34;27.90;24.90
38995;DHT22;24769;18.712;99.000;2024-03-23T02:36:04;28.20;27.00
38995;DHT22;24769;18.712;99.000;2024-03-23T02:38:31;27.90;26.80
38995;DHT22;24769;18.712;99.000;2024-03-23T02:41:04;28.70;27.70
38995;DHT22;24769;18.712;99.000;2024-03-23T02:43:32;28.90;23.50
38995;DHT22;24769;18.712;99.000;2024-03-23T02:45:58;29.20;27.60
38995;DHT22;24769;18.712;99.000;2024-03-23T02:48:27;29.30;23.10
38995;DHT22;24769;18.712;99.000;2024-03-23T02:50:54;29.20;22.90
38995;DHT22;24769;18.712;99.000;2024-03-23T02:53:21;29.00;24.00
38995;DHT22;24769;18.712;99.000;2024-03-23T02:55:47;29.10;19.80
38995;DHT22;24769;18.712;99.000;2024-03-23T02:58:15;29.20;20.30
38995;DHT22;24769;18.712;99.000;2024-03-23T03:00:41;29.50;18.30
38995;DHT22;24769;18.712;99.000;2024-03-23T03:03:08;29.10;18.40
38995;DHT22;24769;18.712;99.000;2024-03-23T03:05:35;29.30;17.60
38995;DHT22;24769;18.712;99.000;2024-03-23T03:08:01;29.50;19.30
38995;DHT22;24769;18.712;99.000;2024-03-23T03:10:28;29.00;19.80
38995;DHT22;24769;18.712;99.000;2024-03-23T03:12:55;29.30;23.10
38995;DHT22;24769;18.712;99.000;2024-03-23T03:15:21;29.80;17.20
38995;DHT22;24769;18.712;99.000;2024-03-23T03:17:48;29.90;15.80
38995;DHT22;24769;18.712;99.000;2024-03-23T03:20:15;30.20;17.00
38995;DHT22;24769;18.712;99.000;2024-03-23T03:22:44;30.30;15.70
38995;DHT22;24769;18.712;99.000;2024-03-23T03:25:10;30.20;15.60
38995;DHT22;24769;18.712;99.000;2024-03-23T03:27:37;30.60;14.20
38995;DHT22;24769;18.712;99.000;2024-03-23T03:30:04;30.20;15.70
38995;DHT22;24769;18.712;99.000;2024-03-23T03:32:32;30.20;16.20
38995;DHT22;24769;18.712;99.000;2024-03-23T03:34:59;30.70;15.70
38995;DHT22;24769;18.712;99.000;2024-03-23T03:37:26;30.40;13.80
38995;DHT22;24769;18.712;99.000;2024-03-23T03:39:53;30.90;14.50
38995;DHT22;24769;18.712;99.000;2024-03-23T03:42:19;31.10;13.00
38995;DHT22;24769;18.712;99.000;2024-03-23T03:44:46;31.00;11.60
38995;DHT22;24769;18.712;99.000;2024-03-23T03:47:13;30.90;12.10
38995;DHT22;24769;18.712;99.000;2024-03-23T03:49:39;31.00;13.90
38995;DHT22;24769;18.712;99.000;2024-03-23T03:52:06;31.10;9.80
38995;DHT22;24769;18.712;99.000;2024-03-23T03:54:35;31.30;10.00
38995;DHT22;24769;18.712;99.000;2024-03-23T03:57:02;31.30;9.20
38995;DHT22;24769;18.712;99.000;2024-03-23T03:59:29;31.60;8.10
38995;DHT22;24769;18.712;99.000;2024-03-23T04:01:58;31.60;8.60
38995;DHT22;24769;18.712;99.000;2024-03-23T04:04:25;31.80;7.10
38995;DHT22;24769;18.712;99.000;2024-03-23T04:07:01;31.70;7.00
38995;DHT22;24769;18.712;99.000;2024-03-23T04:09:28;31.90;7.70
38995;DHT22;24769;18.712;99.000;2024-03-23T04:11:56;31.70;6.30
38995;DHT22;24769;18.712;99.000;2024-03-23T04:14:23;31.10;7.00
38995;DHT22;24769;18.712;99.000;2024-03-23T04:16:49;31.60;6.40
38995;DHT22;24769;18.712;99.000;2024-03-23T04:19:16;32.20;6.90
38995;DHT22;24769;18.712;99.000;2024-03-23T04:21:43;32.30;5.00
38995;DHT22;24769;18.712;99.000;2024-03-23T04:24:09;31.90;5.70
38995;DHT22;24769;18.712;99.000;2024-03-23T04:26:42;32.40;7.20
38995;DHT22;24769;18.712;99.000;2024-03-23T04:29:09;32.30;7.00
38995;DHT22;24769;18.712;99.000;2024-03-23T04:31:36;32.40;6.60
38995;DHT22;24769;18.712;99.000;2024-03-23T04:34:03;32.70;5.30
38995;DHT22;24769;18.712;99.000;2024-03-23T04:36:30;32.70;4.30
38995;DHT22;24769;18.712;99.000;2024-03-23T04:39:00;32.80;4.10
38995;DHT22;24769;18.712;99.000;2024-03-23T04:41:27;32.50;6.10
38995;DHT22;24769;18.712;99.000;2024-03-23T04:43:53;32.60;4.80
38995;DHT22;24769;18.712;99.000;2024-03-23T04:46:20;32.30;6.50
38995;DHT22;24769;18.712;99.000;2024-03-23T04:48:47;32.60;6.40
38995;DHT22;24769;18.712;99.000;2024-03-23T04:51:36;32.50;4.60
38995;DHT22;24769;18.712;99.000;2024-03-23T04:54:04;32.60;4.20
38995;DHT22;24769;18.712;99.000;2024-03-23T04:56:31;32.90;4.90
38995;DHT22;24769;18.712;99.000;2024-03-23T04:59:02;33.20;4.00
38995;DHT22;24769;18.712;99.000;2024-03-23T05:01:38;33.30;4.70
38995;DHT22;24769;18.712;99.000;2024-03-23T05:04:08;33.20;3.10
38995;DHT22;24769;18.712;99.000;2024-03-23T05:06:36;33.20;2.00
38995;DHT22;24769;18.712;99.000;2024-03-23T05:09:02;33.40;1.00
38995;DHT22;24769;18.712;99.000;2024-03-23T05:11:33;33.50;1.00
38995;DHT22;24769;18.712;99.000;2024-03-23T05:14:00;33.70;3.50
38995;DHT22;24769;18.712;99.000;2024-03-23T05:16:29;33.40;1.00
38995;DHT22;24769;18.712;99.000;2024-03-23T05:18:55;33.60;1.90
38995;DHT22;24769;18.712;99.000;2024-03-23T05:21:22;33.70;1.00
38995;DHT22;24769;18.712;99.000;2024-03-23T05:23:49;33.40;1.00
38995;DHT22;24769;18.712;99.000;2024-03-23T05:26:17;33.20;1.00
38995;DHT22;24769;18.712;99.000;2024-03-23T05:28:44;33.50;1.00
38995;DHT22;24769;18.712;99.000;2024-03-23T05:31:11;34.00;1.00
38995;DHT22;24769;18.712;99.000;2024-03-23T05:33:37;34.00;1.00
38995;DHT22;24769;18.712;99.000;2024-03-23T05:36:04;33.80;1.00
38995;DHT22;24769;18.712;99.000;2024-03-23T05:38:31;33.80;1.00
38995;DHT22;24769;18.712;99.000;2024-03-23T05:40:59;34.00;1.00
38995;DHT22;24769;18.712;99.000;2024-03-23T05:43:26;34.10;1.00
38995;DHT22;24769;18.712;99.000;2024-03-23T05:45:59;34.30;1.00
38995;DHT22;24769;18.712;99.000;2024-03-23T05:48:26;34.50;1.00
38995;DHT22;24769;18.712;99.000;2024-03-23T05:50:54;34.20;1.00
38995;DHT22;24769;18.712;99.000;2024-03-23T05:53:21;34.00;1.00
38995;DHT22;24769;18.712;99.000;2024-03-23T05:55:48;34.10;1.00
38995;DHT22;24769;18.712;99.000;2024-03-23T05:58:18;34.50;1.00
38995;DHT22;24769;18.712;99.000;2024-03-23T06:00:46;34.40;1.00
38995;DHT22;24769;18.712;99.000;2024-03-23T06:03:13;34.50;1.00
38995;DHT22;24769;18.712;99.000;2024-03-23T06:05:40;34.70;1.00
38995;DHT22;24769;18.712;99.000;2024-03-23T06:08:08;34.60;1.00
38995;DHT22;24769;18.712;99.000;2024-03-23T06:10:36;34.20;1.00
38995;DHT22;24769;18.712;99.000;2024-03-23T06:13:02;34.50;1.00
38995;DHT22;24769;18.712;99.000;2024-03-23T06:15:29;34.80;1.00
38995;DHT22;24769;18.712;99.000;2024-03-23T06:17:57;34.90;1.00
38995;DHT22;24769;18.712;99.000;2024-03-23T06:20:24;35.00;1.00
38995;DHT22;24769;18.712;99.000;2024-03-23T06:22:51;34.90;1.00
38995;DHT22;24769;18.712;99.000;2024-03-23T06:25:18;34.60;1.00
38995;DHT22;24769;18.712;99.000;2024-03-23T06:27:45;34.70;1.00
38995;DHT22;24769;18.712;99.000;2024-03-23T06:30:12;35.00;1.00
38995;DHT22;24769;18.712;99.000;2024-03-23T06:32:39;34.80;1.00
38995;DHT22;24769;18.712;99.000;2024-03-23T06:35:08;34.90;1.00
38995;DHT22;24769;18.712;99.000;2024-03-23T06:37:38;35.00;1.00
38995;DHT22;24769;18.712;99.000;2024-03-23T06:40:08;34.90;1.00
38995;DHT22;24769;18.712;99.000;2024-03-23T06:42:36;34.80;1.00
38995;DHT22;24769;18.712;99.000;2024-03-23T06:45:05;34.80;1.00
38995;DHT22;24769;18.712;99.000;2024-03-23T06:47:32;34.90;1.00
38995;DHT22;24769;18.712;99.000;2024-03-23T06:50:03;35.00;1.00
38995;DHT22;24769;18.712;99.000;2024-03-23T06:52:30;35.10;1.00
38995;DHT22;24769;18.712;99.000;2024-03-23T06:54:58;35.20;1.00
38995;DHT22;24769;18.712;99.000;2024-03-23T06:57:25;35.00;1.00
38995;DHT22;24769;18.712;99.000;2024-03-23T06:59:51;35.20;1.00
38995;DHT22;24769;18.712;99.000;2024-03-23T07:02:18;35.00;1.00
38995;DHT22;24769;18.712;99.000;2024-03-23T07:04:45;35.50;1.00
38995;DHT22;24769;18.712;99.000;2024-03-23T07:07:12;35.50;1.00
38995;DHT22;24769;18.712;99.000;2024-03-23T07:09:38;35.40;1.00
38995;DHT22;24769;18.712;99.000;2024-03-23T07:12:05;35.50;1.00
38995;DHT22;24769;18.712;99.000;2024-03-23T07:14:32;35.50;1.00
38995;DHT22;24769;18.712;99.000;2024-03-23T07:16:59;35.50;1.00
38995;DHT22;24769;18.712;99.000;2024-03-23T07:19:25;35.50;1.00
38995;DHT22;24769;18.712;99.000;2024-03-23T07:21:52;35.50;1.00
38995;DHT22;24769;18.712;99.000;2024-03-23T07:24:19;35.40;1.00
38995;DHT22;24769;18.712;99.000;2024-03-23T07:26:46;35.70;1.00
38995;DHT22;24769;18.712;99.000;2024-03-23T07:29:13;35.70;1.00
38995;DHT22;24769;18.712;99.000;2024-03-23T07:31:40;35.80;1.00
38995;DHT22;24769;18.712;99.000;2024-03-23T07:34:07;35.60;1.00
38995;DHT22;24769;18.712;99.000;2024-03-23T07:36:34;35.70;1.00
38995;DHT22;24769;18.712;99.000;2024-03-23T07:39:01;35.90;1.00
38995;DHT22;24769;18.712;99.000;2024-03-23T07:41:27;35.70;1.00
38995;DHT22;24769;18.712;99.000;2024-03-23T07:43:54;35.90;1.00
38995;DHT22;24769;18.712;99.000;2024-03-23T07:46:21;35.80;1.00
38995;DHT22;24769;18.712;99.000;2024-03-23T07:48:48;35.80;1.00
38995;DHT22;24769;18.712;99.000;2024-03-23T07:51:22;35.80;1.00
38995;DHT22;24769;18.712;99.000;2024-03-23T07:53:49;35.70;1.00
38995;DHT22;24769;18.712;99.000;2024-03-23T07:56:16;35.60;1.00
38995;DHT22;24769;18.712;99.000;2024-03-23T07:58:45;35.60;1.00
38995;DHT22;24769;18.712;99.000;2024-03-23T08:01:13;35.50;1.00
38995;DHT22;24769;18.712;99.000;2024-03-23T08:03:44;35.60;1.00
38995;DHT22;24769;18.712;99.000;2024-03-23T08:06:14;35.90;1.00
38995;DHT22;24769;18.712;99.000;2024-03-23T08:08:43;35.70;1.00
38995;DHT22;24769;18.712;99.000;2024-03-23T08:11:11;35.60;1.00
38995;DHT22;24769;18.712;99.000;2024-03-23T08:13:40;35.60;1.00
38995;DHT22;24769;18.712;99.000;2024-03-23T08:16:07;35.80;1.00
38995;DHT22;24769;18.712;99.000;2024-03-23T08:18:38;35.80;1.00
38995;DHT22;24769;18.712;99.000;2024-03-23T08:21:05;35.90;1.00
38995;DHT22;24769;18.712;99.000;2024-03-23T08:23:34;35.70;1.00
38995;DHT22;24769;18.712;99.000;2024-03-23T08:26:14;35.70;1.00
38995;DHT22;24769;18.712;99.000;2024-03-23T08:28:41;35.70;1.00
38995;DHT22;24769;18.712;99.000;2024-03-23T08:31:10;35.70;1.00
38995;DHT22;24769;18.712;99.000;2024-03-23T08:33:38;35.60;1.00
38995;DHT22;24769;18.712;99.000;2024-03-23T08:36:07;35.60;1.00
38995;DHT22;24769;18.712;99.000;2024-03-23T08:38:34;35.50;1.00
38995;DHT22;24769;18.712;99.000;2024-03-23T08:41:09;35.50;1.00
38995;DHT22;24769;18.712;99.000;2024-03-23T08:43:37;35.50;1.00
38995;DHT22;24769;18.712;99.000;2024-03-23T08:48:35;35.60;1.00
38995;DHT22;24769;18.712;99.000;2024-03-23T08:51:07;35.40;1.00
38995;DHT22;24769;18.712;99.000;2024-03-23T08:53:37;35.50;1.00
38995;DHT22;24769;18.712;99.000;2024-03-23T08:56:05;35.60;1.00
38995;DHT22;24769;18.712;99.000;2024-03-23T08:58:36;35.50;1.00
38995;DHT22;24769;18.712;99.000;2024-03-23T09:01:13;35.30;1.00
38995;DHT22;24769;18.712;99.000;2024-03-23T09:03:40;35.20;1.00
38995;DHT22;24769;18.712;99.000;2024-03-23T09:06:07;35.20;1.00
38995;DHT22;24769;18.712;99.000;2024-03-23T09:08:34;35.20;1.00
38995;DHT22;24769;18.712;99.000;2024-03-23T09:11:07;35.10;1.00
38995;DHT22;24769;18.712;99.000;2024-03-23T09:13:34;35.20;1.00
38995;DHT22;24769;18.712;99.000;2024-03-23T09:16:02;35.20;1.00
38995;DHT22;24769;18.712;99.000;2024-03-23T09:18:35;35.10;1.00
38995;DHT22;24769;18.712;99.000;2024-03-23T09:21:11;35.00;1.00
38995;DHT22;24769;18.712;99.000;2024-03-23T09:23:44;34.90;1.00
38995;DHT22;24769;18.712;99.000;2024-03-23T09:26:11;34.90;1.00
38995;DHT22;24769;18.712;99.000;2024-03-23T09:28:38;34.80;1.00
38995;DHT22;24769;18.712;99.000;2024-03-23T09:31:05;34.90;1.00
38995;DHT22;24769;18.712;99.000;2024-03-23T09:33:36;34.70;1.00
38995;DHT22;24769;18.712;99.000;2024-03-23T09:36:06;34.60;1.00
38995;DHT22;24769;18.712;99.000;2024-03-23T09:38:33;34.50;1.00
38995;DHT22;24769;18.712;99.000;2024-03-23T09:41:06;34.50;1.00
38995;DHT22;24769;18.712;99.000;2024-03-23T09:43:33;34.50;1.00
38995;DHT22;24769;18.712;99.000;2024-03-23T09:46:01;34.60;1.00
38995;DHT22;24769;18.712;99.000;2024-03-23T09:48:28;34.40;1.00
38995;DHT22;24769;18.712;99.000;2024-03-23T09:50:55;34.40;1.00
38995;DHT22;24769;18.712;99.000;2024-03-23T09:53:22;34.30;1.00
38995;DHT22;24769;18.712;99.000;2024-03-23T09:55:49;34.20;1.00
38995;DHT22;24769;18.712;99.000;2024-03-23T09:58:18;34.10;1.00
38995;DHT22;24769;18.712;99.000;2024-03-23T10:00:45;34.00;1.00
38995;DHT22;24769;18.712;99.000;2024-03-23T10:03:12;34.00;1.00
38995;DHT22;24769;18.712;99.000;2024-03-23T10:05:39;33.90;1.00
38995;DHT22;24769;18.712;99.000;2024-03-23T10:10:42;33.90;1.00
38995;DHT22;24769;18.712;99.000;2024-03-23T10:13:08;33.80;1.00
38995;DHT22;24769;18.712;99.000;2024-03-23T10:15:36;33.80;1.00
38995;DHT22;24769;18.712;99.000;2024-03-23T10:18:19;33.70;1.00
38995;DHT22;24769;18.712;99.000;2024-03-23T10:23:35;33.40;1.00
38995;DHT22;24769;18.712;99.000;2024-03-23T10:29:01;33.20;1.00
38995;DHT22;24769;18.712;99.000;2024-03-23T10:31:31;33.00;1.00
38995;DHT22;24769;18.712;99.000;2024-03-23T10:33:58;33.00;1.00
38995;DHT22;24769;18.712;99.000;2024-03-23T10:36:27;32.90;1.00
38995;DHT22;24769;18.712;99.000;2024-03-23T10:38:54;32.90;1.00
38995;DHT22;24769;18.712;99.000;2024-03-23T10:41:21;32.80;1.00
38995;DHT22;24769;18.712;99.000;2024-03-23T10:43:49;32.70;1.00
38995;DHT22;24769;18.712;99.000;2024-03-23T10:46:16;32.50;1.00
38995;DHT22;24769;18.712;99.000;2024-03-23T10:48:46;32.30;1.00
38995;DHT22;24769;18.712;99.000;2024-03-23T10:51:14;32.40;1.00
38995;DHT22;24769;18.712;99.000;2024-03-23T10:53:41;32.30;1.00
38995;DHT22;24769;18.712;99.000;2024-03-23T10:56:09;32.20;1.00
38995;DHT22;24769;18.712;99.000;2024-03-23T10:58:47;32.30;1.00
38995;DHT22;24769;18.712;99.000;2024-03-23T11:01:15;32.20;1.00
38995;DHT22;24769;18.712;99.000;2024-03-23T11:03:48;32.10;1.00
38995;DHT22;24769;18.712;99.000;2024-03-23T11:06:38;31.80;1.00
38995;DHT22;24769;18.712;99.000;2024-03-23T11:17:23;31.40;1.00
38995;DHT22;24769;18.712;99.000;2024-03-23T11:20:01;31.20;1.00
38995;DHT22;24769;18.712;99.000;2024-03-23T11:22:44;30.90;1.00
38995;DHT22;24769;18.712;99.000;2024-03-23T11:25:14;30.90;1.00
38995;DHT22;24769;18.712;99.000;2024-03-23T11:27:41;30.90;1.00
38995;DHT22;24769;18.712;99.000;2024-03-23T11:30:21;30.80;1.00
38995;DHT22;24769;18.712;99.000;2024-03-23T11:32:50;30.80;1.00
38995;DHT22;24769;18.712;99.000;2024-03-23T11:35:27;30.70;1.00
38995;DHT22;24769;18.712;99.000;2024-03-23T11:40:40;30.10;1.00
38995;DHT22;24769;18.712;99.000;2024-03-23T11:43:09;29.80;1.00
38995;DHT22;24769;18.712;99.000;2024-03-23T11:45:44;29.70;1.00
38995;DHT22;24769;18.712;99.000;2024-03-23T11:48:16;29.90;1.00
38995;DHT22;24769;18.712;99.000;2024-03-23T11:50:47;29.90;1.00
38995;DHT22;24769;18.712;99.000;2024-03-23T11:53:23;29.70;1.00
38995;DHT22;24769;18.712;99.000;2024-03-23T11:55:59;29.70;1.00
38995;DHT22;24769;18.712;99.000;2024-03-23T11:58:27;29.60;1.00
38995;DHT22;24769;18.712;99.000;2024-03-23T12:01:01;29.60;1.00
38995;DHT22;24769;18.712;99.000;2024-03-23T12:03:30;29.50;1.00
38995;DHT22;24769;18.712;99.000;2024-03-23T12:06:00;29.50;1.00
38995;DHT22;24769;18.712;99.000;2024-03-23T12:11:17;29.20;1.00
38995;DHT22;24769;18.712;99.000;2024-03-23T12:13:46;29.20;1.00
38995;DHT22;24769;18.712;99.000;2024-03-23T12:16:18;29.30;1.00
38995;DHT22;24769;18.712;99.000;2024-03-23T12:18:49;29.50;1.00
38995;DHT22;24769;18.712;99.000;2024-03-23T12:21:17;29.40;1.00
38995;DHT22;24769;18.712;99.000;2024-03-23T12:23:44;29.40;1.00
38995;DHT22;24769;18.712;99.000;2024-03-23T12:26:13;29.20;1.00
38995;DHT22;24769;18.712;99.000;2024-03-23T12:28:40;29.10;1.00
38995;DHT22;24769;18.712;99.000;2024-03-23T12:31:06;28.90;1.00
38995;DHT22;24769;18.712;99.000;2024-03-23T12:33:33;28.70;1.00
38995;DHT22;24769;18.712;99.000;2024-03-23T12:36:00;28.60;1.00
38995;DHT22;24769;18.712;99.000;2024-03-23T12:38:26;28.60;1.00
38995;DHT22;24769;18.712;99.000;2024-03-23T12:40:53;28.40;1.00
38995;DHT22;24769;18.712;99.000;2024-03-23T12:43:20;28.20;1.00
38995;DHT22;24769;18.712;99.000;2024-03-23T12:48:38;28.20;1.00
38995;DHT22;24769;18.712;99.000;2024-03-23T12:51:04;28.20;1.00
38995;DHT22;24769;18.712;99.000;2024-03-23T12:53:31;28.30;1.00
38995;DHT22;24769;18.712;99.000;2024-03-23T12:55:58;28.20;1.00
38995;DHT22;24769;18.712;99.000;2024-03-23T12:58:24;28.20;1.00
38995;DHT22;24769;18.712;99.000;2024-03-23T13:00:51;28.20;1.00
38995;DHT22;24769;18.712;99.000;2024-03-23T13:03:17;28.10;1.00
38995;DHT22;24769;18.712;99.000;2024-03-23T13:05:52;27.90;1.00
38995;DHT22;24769;18.712;99.000;2024-03-23T13:08:18;27.60;1.00
38995;DHT22;24769;18.712;99.000;2024-03-23T13:10:45;27.50;1.00
38995;DHT22;24769;18.712;99.000;2024-03-23T13:13:13;27.40;1.00
38995;DHT22;24769;18.712;99.000;2024-03-23T13:15:40;27.40;1.00
38995;DHT22;24769;18.712;99.000;2024-03-23T13:18:06;27.50;1.00
38995;DHT22;24769;18.712;99.000;2024-03-23T13:20:36;27.50;1.00
38995;DHT22;24769;18.712;99.000;2024-03-23T13:23:03;27.40;1.00
38995;DHT22;24769;18.712;99.000;2024-03-23T13:25:30;27.20;1.00
38995;DHT22;24769;18.712;99.000;2024-03-23T13:27:56;27.10;1.00
38995;DHT22;24769;18.712;99.000;2024-03-23T13:30:23;26.80;1.00
38995;DHT22;24769;18.712;99.000;2024-03-23T13:32:50;26.80;1.50
38995;DHT22;24769;18.712;99.000;2024-03-23T13:35:16;26.70;1.00
38995;DHT22;24769;18.712;99.000;2024-03-23T13:37:43;26.80;1.00
38995;DHT22;24769;18.712;99.000;2024-03-23T13:40:10;27.00;1.00
38995;DHT22;24769;18.712;99.000;2024-03-23T13:42:37;26.80;1.40
38995;DHT22;24769;18.712;99.000;2024-03-23T13:45:04;26.70;2.30
38995;DHT22;24769;18.712;99.000;2024-03-23T13:47:31;26.70;1.00
38995;DHT22;24769;18.712;99.000;2024-03-23T13:49:58;26.60;2.60
38995;DHT22;24769;18.712;99.000;2024-03-23T13:52:28;26.60;2.10
38995;DHT22;24769;18.712;99.000;2024-03-23T13:54:56;26.50;1.00
38995;DHT22;24769;18.712;99.000;2024-03-23T13:57:23;26.40;1.20
38995;DHT22;24769;18.712;99.000;2024-03-23T13:59:52;26.60;1.20
38995;DHT22;24769;18.712;99.000;2024-03-23T14:02:18;26.60;1.30
38995;DHT22;24769;18.712;99.000;2024-03-23T14:04:45;26.40;1.00
38995;DHT22;24769;18.712;99.000;2024-03-23T14:07:12;26.40;2.30
38995;DHT22;24769;18.712;99.000;2024-03-23T14:09:38;26.20;1.40
38995;DHT22;24769;18.712;99.000;2024-03-23T14:12:05;26.00;3.60
38995;DHT22;24769;18.712;99.000;2024-03-23T14:14:35;25.80;4.60
38995;DHT22;24769;18.712;99.000;2024-03-23T14:17:01;25.70;3.50
38995;DHT22;24769;18.712;99.000;2024-03-23T14:19:28;25.50;7.60
38995;DHT22;24769;18.712;99.000;2024-03-23T14:21:58;25.40;4.80
38995;DHT22;24769;18.712;99.000;2024-03-23T14:24:33;25.20;5.70
38995;DHT22;24769;18.712;99.000;2024-03-23T14:26:59;25.10;9.00
38995;DHT22;24769;18.712;99.000;2024-03-23T14:29:30;25.10;6.40
38995;DHT22;24769;18.712;99.000;2024-03-23T14:31:57;25.20;6.80
38995;DHT22;24769;18.712;99.000;2024-03-23T14:34:26;25.00;9.50
38995;DHT22;24769;18.712;99.000;2024-03-23T14:36:54;24.80;10.80
38995;DHT22;24769;18.712;99.000;2024-03-23T14:39:24;24.70;8.30
38995;DHT22;24769;18.712;99.000;2024-03-23T14:41:51;24.70;11.00
38995;DHT22;24769;18.712;99.000;2024-03-23T14:44:18;24.60;11.90
38995;DHT22;24769;18.712;99.000;2024-03-23T14:46:45;24.60;11.60
38995;DHT22;24769;18.712;99.000;2024-03-23T14:49:15;24.70;11.00
38995;DHT22;24769;18.712;99.000;2024-03-23T14:51:44;24.60;12.90
38995;DHT22;24769;18.712;99.000;2024-03-23T14:54:13;25.20;8.70
38995;DHT22;24769;18.712;99.000;2024-03-23T14:56:40;25.40;9.00
38995;DHT22;24769;18.712;99.000;2024-03-23T14:59:06;25.50;8.00
38995;DHT22;24769;18.712;99.000;2024-03-23T15:01:33;25.70;5.80
38995;DHT22;24769;18.712;99.000;2024-03-23T15:04:00;25.70;5.10
38995;DHT22;24769;18.712;99.000;2024-03-23T15:06:28;25.80;6.10
38995;DHT22;24769;18.712;99.000;2024-03-23T15:08:55;25.70;5.80
38995;DHT22;24769;18.712;99.000;2024-03-23T15:11:21;25.50;6.70
38995;DHT22;24769;18.712;99.000;2024-03-23T15:13:50;25.50;6.80
38995;DHT22;24769;18.712;99.000;2024-03-23T15:16:19;25.50;7.40
38995;DHT22;24769;18.712;99.000;2024-03-23T15:18:46;25.20;9.00
38995;DHT22;24769;18.712;99.000;2024-03-23T15:21:13;25.30;8.30
38995;DHT22;24769;18.712;99.000;2024-03-23T15:23:46;25.10;10.30
38995;DHT22;24769;18.712;99.000;2024-03-23T15:26:13;25.10;8.50
38995;DHT22;24769;18.712;99.000;2024-03-23T15:28:39;25.30;9.40
38995;DHT22;24769;18.712;99.000;2024-03-23T15:31:29;25.40;9.20
38995;DHT22;24769;18.712;99.000;2024-03-23T15:33:56;25.20;8.90
38995;DHT22;24769;18.712;99.000;2024-03-23T15:36:23;25.30;10.20
38995;DHT22;24769;18.712;99.000;2024-03-23T15:38:49;25.20;9.60
38995;DHT22;24769;18.712;99.000;2024-03-23T15:41:16;25.20;8.60
38995;DHT22;24769;18.712;99.000;2024-03-23T15:43:43;25.20;9.10
38995;DHT22;24769;18.712;99.000;2024-03-23T15:46:09;25.00;8.70
38995;DHT22;24769;18.712;99.000;2024-03-23T15:48:37;25.10;8.60
38995;DHT22;24769;18.712;99.000;2024-03-23T15:51:04;25.10;9.00
38995;DHT22;24769;18.712;99.000;2024-03-23T15:53:31;25.00;9.40
38995;DHT22;24769;18.712;99.000;2024-03-23T15:56:02;24.90;9.60
38995;DHT22;24769;18.712;99.000;2024-03-23T15:58:30;25.00;9.50
38995;DHT22;24769;18.712;99.000;2024-03-23T16:01:02;25.20;9.40
38995;DHT22;24769;18.712;99.000;2024-03-23T16:03:30;25.20;9.60
38995;DHT22;24769;18.712;99.000;2024-03-23T16:06:00;25.40;9.30
38995;DHT22;24769;18.712;99.000;2024-03-23T16:08:27;25.50;9.40
38995;DHT22;24769;18.712;99.000;2024-03-23T16:10:54;25.40;9.50
38995;DHT22;24769;18.712;99.000;2024-03-23T16:13:22;25.40;9.40
38995;DHT22;24769;18.712;99.000;2024-03-23T16:15:59;25.30;9.60
38995;DHT22;24769;18.712;99.000;2024-03-23T16:18:26;25.30;9.40
38995;DHT22;24769;18.712;99.000;2024-03-23T16:21:01;25.10;9.40
38995;DHT22;24769;18.712;99.000;2024-03-23T16:23:29;25.10;10.10
38995;DHT22;24769;18.712;99.000;2024-03-23T16:25:57;25.10;10.50
38995;DHT22;24769;18.712;99.000;2024-03-23T16:28:31;24.90;10.50
38995;DHT22;24769;18.712;99.000;2024-03-23T16:31:03;24.90;10.80
38995;DHT22;24769;18.712;99.000;2024-03-23T16:33:30;24.90;10.80
38995;DHT22;24769;18.712;99.000;2024-03-23T16:36:07;24.80;11.30
38995;DHT22;24769;18.712;99.000;2024-03-23T16:38:41;24.90;11.20
38995;DHT22;24769;18.712;99.000;2024-03-23T16:41:10;24.80;11.10
38995;DHT22;24769;18.712;99.000;2024-03-23T16:43:42;24.60;11.90
38995;DHT22;24769;18.712;99.000;2024-03-23T16:46:11;24.40;13.50
38995;DHT22;24769;18.712;99.000;2024-03-23T16:48:42;24.30;13.10
38995;DHT22;24769;18.712;99.000;2024-03-23T16:51:10;24.20;13.90
38995;DHT22;24769;18.712;99.000;2024-03-23T16:53:37;24.10;13.60
38995;DHT22;24769;18.712;99.000;2024-03-23T16:56:09;24.10;12.70